sensor_id;sensor_type;location;lat;lon;timestamp;pressure;altitude;pressure_sealevel;temperature;humidity
69153;BME280;56261;51.580;4.578;2023-04-25T00:01:10;101268.66;;;5.76;100.00
69153;BME280;56261;51.580;4.578;2023-04-25T00:03:38;101271.03;;;5.79;100.00
69153;BME280;56261;51.580;4.578;2023-04-25T00:06:04;101273.94;;;5.76;100.00
69153;BME280;56261;51.580;4.578;2023-04-25T00:08:30;101273.63;;;5.70;100.00
69153;BME280;56261;51.580;4.578;2023-04-25T00:10:56;101275.66;;;5.66;100.00
69153;BME280;56261;51.580;4.578;2023-04-25T00:13:22;101278.09;;;5.58;100.00
69153;BME280;56261;51.580;4.578;2023-04-25T00:15:48;101272.25;;;5.54;100.00
69153;BME280;56261;51.580;4.578;2023-04-25T00:18:14;101276.38;;;5.47;100.00
69153;BME280;56261;51.580;4.578;2023-04-25T00:20:40;101281.31;;;5.40;100.00
69153;BME280;56261;51.580;4.578;2023-04-25T00:23:05;101281.53;;;5.37;100.00
69153;BME280;56261;51.580;4.578;2023-04-25T00:25:31;101278.44;;;5.32;100.00
69153;BME280;56261;51.580;4.578;2023-04-25T00:27:56;101281.72;;;5.25;100.00
69153;BME280;56261;51.580;4.578;2023-04-25T00:30:22;101277.75;;;5.19;100.00
69153;BME280;56261;51.580;4.578;2023-04-25T00:32:47;101276.44;;;5.13;100.00
69153;BME280;56261;51.580;4.578;2023-04-25T00:35:14;101268.41;;;5.04;100.00
69153;BME280;56261;51.580;4.578;2023-04-25T00:37:39;101276.94;;;5.07;100.00
69153;BME280;56261;51.580;4.578;2023-04-25T00:40:06;101279.69;;;5.06;100.00
69153;BME280;56261;51.580;4.578;2023-04-25T00:42:31;101266.25;;;4.97;100.00
69153;BME280;56261;51.580;4.578;2023-04-25T00:44:58;101280.78;;;5.03;100.00
69153;BME280;56261;51.580;4.578;2023-04-25T00:47:25;101282.94;;;5.09;100.00
69153;BME280;56261;51.580;4.578;2023-04-25T00:49:50;101282.69;;;5.12;100.00
69153;BME280;56261;51.580;4.578;2023-04-25T00:52:16;101286.41;;;5.21;100.00
69153;BME280;56261;51.580;4.578;2023-04-25T00:54:42;101287.47;;;5.30;100.00
69153;BME280;56261;51.580;4.578;2023-04-25T00:57:07;101289.47;;;5.37;100.00
69153;BME280;56261;51.580;4.578;2023-04-25T00:59:33;101274.78;;;5.45;100.00
69153;BME280;56261;51.580;4.578;2023-04-25T01:01:58;101296.44;;;5.50;100.00
69153;BME280;56261;51.580;4.578;2023-04-25T01:04:26;101289.59;;;5.47;100.00
69153;BME280;56261;51.580;4.578;2023-04-25T01:06:52;101295.41;;;5.62;100.00
69153;BME280;56261;51.580;4.578;2023-04-25T01:09:18;101277.09;;;5.70;100.00
69153;BME280;56261;51.580;4.578;2023-04-25T01:11:44;101292.81;;;5.83;100.00
69153;BME280;56261;51.580;4.578;2023-04-25T01:14:10;101297.50;;;5.79;100.00
69153;BME280;56261;51.580;4.578;2023-04-25T01:16:35;101293.03;;;5.80;100.00
69153;BME280;56261;51.580;4.578;2023-04-25T01:19:06;101295.97;;;5.77;100.00
69153;BME280;56261;51.580;4.578;2023-04-25T01:21:33;101293.91;;;5.80;100.00
69153;BME280;56261;51.580;4.578;2023-04-25T01:23:59;101294.03;;;5.79;100.00
69153;BME280;56261;51.580;4.578;2023-04-25T01:26:25;101300.47;;;5.86;100.00
69153;BME280;56261;51.580;4.578;2023-04-25T01:28:50;101301.97;;;5.79;100.00
69153;BME280;56261;51.580;4.578;2023-04-25T01:31:16;101300.59;;;5.85;100.00
69153;BME280;56261;51.580;4.578;2023-04-25T01:33:42;101306.38;;;5.90;100.00
69153;BME280;56261;51.580;4.578;2023-04-25T01:36:07;101306.09;;;5.93;100.00
69153;BME280;56261;51.580;4.578;2023-04-25T01:38:33;101302.38;;;5.95;100.00
69153;BME280;56261;51.580;4.578;2023-04-25T01:40:59;101300.09;;;5.91;100.00
69153;BME280;56261;51.580;4.578;2023-04-25T01:43:24;101310.78;;;6.00;100.00
69153;BME280;56261;51.580;4.578;2023-04-25T01:45:51;101309.16;;;6.09;100.00
69153;BME280;56261;51.580;4.578;2023-04-25T01:48:17;101304.19;;;6.16;100.00
69153;BME280;56261;51.580;4.578;2023-04-25T01:50:43;101318.69;;;6.12;100.00
69153;BME280;56261;51.580;4.578;2023-04-25T01:53:09;101302.22;;;6.08;100.00
69153;BME280;56261;51.580;4.578;2023-04-25T01:55:36;101317.38;;;6.06;100.00
69153;BME280;56261;51.580;4.578;2023-04-25T01:58:02;101322.41;;;6.09;100.00
69153;BME280;56261;51.580;4.578;2023-04-25T02:00:28;101302.09;;;6.10;100.00
69153;BME280;56261;51.580;4.578;2023-04-25T02:02:53;101323.50;;;6.07;100.00
69153;BME280;56261;51.580;4.578;2023-04-25T02:05:19;101327.78;;;5.98;100.00
69153;BME280;56261;51.580;4.578;2023-04-25T02:07:47;101332.34;;;5.96;100.00
69153;BME280;56261;51.580;4.578;2023-04-25T02:10:13;101337.53;;;5.97;100.00
69153;BME280;56261;51.580;4.578;2023-04-25T02:12:39;101335.22;;;6.04;100.00
69153;BME280;56261;51.580;4.578;2023-04-25T02:15:05;101330.56;;;5.96;100.00
69153;BME280;56261;51.580;4.578;2023-04-25T02:17:31;101328.75;;;5.97;100.00
69153;BME280;56261;51.580;4.578;2023-04-25T02:19:56;101324.63;;;6.04;100.00
69153;BME280;56261;51.580;4.578;2023-04-25T02:22:22;101323.91;;;6.02;100.00
69153;BME280;56261;51.580;4.578;2023-04-25T02:24:47;101322.41;;;6.09;100.00
69153;BME280;56261;51.580;4.578;2023-04-25T02:27:13;101322.09;;;6.02;100.00
69153;BME280;56261;51.580;4.578;2023-04-25T02:29:38;101332.69;;;6.02;100.00
69153;BME280;56261;51.580;4.578;2023-04-25T02:32:03;101336.63;;;6.08;100.00
69153;BME280;56261;51.580;4.578;2023-04-25T02:34:29;101334.31;;;6.15;100.00
69153;BME280;56261;51.580;4.578;2023-04-25T02:36:54;101335.75;;;6.19;100.00
69153;BME280;56261;51.580;4.578;2023-04-25T02:39:20;101329.13;;;6.13;100.00
69153;BME280;56261;51.580;4.578;2023-04-25T02:41:47;101334.63;;;6.21;100.00
69153;BME280;56261;51.580;4.578;2023-04-25T02:44:12;101337.28;;;6.21;100.00
69153;BME280;56261;51.580;4.578;2023-04-25T02:46:38;101339.63;;;6.15;100.00
69153;BME280;56261;51.580;4.578;2023-04-25T02:49:03;101331.78;;;6.13;100.00
69153;BME280;56261;51.580;4.578;2023-04-25T02:51:28;101337.69;;;6.17;100.00
69153;BME280;56261;51.580;4.578;2023-04-25T02:53:55;101334.53;;;6.23;100.00
69153;BME280;56261;51.580;4.578;2023-04-25T02:56:20;101340.50;;;6.25;100.00
69153;BME280;56261;51.580;4.578;2023-04-25T02:58:46;101343.41;;;6.22;100.00
69153;BME280;56261;51.580;4.578;2023-04-25T03:01:11;101341.75;;;6.21;100.00
69153;BME280;56261;51.580;4.578;2023-04-25T03:03:36;101342.06;;;6.28;100.00
69153;BME280;56261;51.580;4.578;2023-04-25T03:06:02;101340.69;;;6.33;100.00
69153;BME280;56261;51.580;4.578;2023-04-25T03:08:27;101350.72;;;6.30;100.00
69153;BME280;56261;51.580;4.578;2023-04-25T03:10:57;101347.06;;;6.21;100.00
69153;BME280;56261;51.580;4.578;2023-04-25T03:13:23;101349.53;;;6.22;100.00
69153;BME280;56261;51.580;4.578;2023-04-25T03:15:49;101339.94;;;6.21;100.00
69153;BME280;56261;51.580;4.578;2023-04-25T03:18:14;101339.53;;;6.26;100.00
69153;BME280;56261;51.580;4.578;2023-04-25T03:20:39;101342.91;;;6.28;100.00
69153;BME280;56261;51.580;4.578;2023-04-25T03:23:06;101340.66;;;6.23;100.00
69153;BME280;56261;51.580;4.578;2023-04-25T03:25:32;101343.41;;;6.22;100.00
69153;BME280;56261;51.580;4.578;2023-04-25T03:27:57;101340.81;;;6.32;100.00
69153;BME280;56261;51.580;4.578;2023-04-25T03:30:23;101350.47;;;6.33;100.00
69153;BME280;56261;51.580;4.578;2023-04-25T03:32:49;101352.13;;;6.34;100.00
69153;BME280;56261;51.580;4.578;2023-04-25T03:35:14;101353.75;;;6.25;100.00
69153;BME280;56261;51.580;4.578;2023-04-25T03:37:40;101356.66;;;6.22;100.00
69153;BME280;56261;51.580;4.578;2023-04-25T03:40:06;101353.25;;;6.10;100.00
69153;BME280;56261;51.580;4.578;2023-04-25T03:42:31;101354.41;;;6.17;100.00
69153;BME280;56261;51.580;4.578;2023-04-25T03:44:57;101345.19;;;6.12;100.00
69153;BME280;56261;51.580;4.578;2023-04-25T03:47:22;101351.88;;;6.16;100.00
69153;BME280;56261;51.580;4.578;2023-04-25T03:49:47;101356.66;;;6.22;100.00
69153;BME280;56261;51.580;4.578;2023-04-25T03:52:14;101358.03;;;6.16;100.00
69153;BME280;56261;51.580;4.578;2023-04-25T03:54:40;101364.78;;;6.09;100.00
69153;BME280;56261;51.580;4.578;2023-04-25T03:57:05;101365.75;;;6.08;100.00
69153;BME280;56261;51.580;4.578;2023-04-25T03:59:30;101362.72;;;6.13;100.00
69153;BME280;56261;51.580;4.578;2023-04-25T04:01:56;101361.75;;;6.14;100.00
69153;BME280;56261;51.580;4.578;2023-04-25T04:04:22;101371.56;;;6.02;100.00
69153;BME280;56261;51.580;4.578;2023-04-25T04:06:47;101361.47;;;5.85;100.00
69153;BME280;56261;51.580;4.578;2023-04-25T04:09:12;101374.16;;;5.81;100.00
69153;BME280;56261;51.580;4.578;2023-04-25T04:11:38;101368.75;;;5.71;100.00
69153;BME280;56261;51.580;4.578;2023-04-25T04:14:05;101370.44;;;5.72;100.00
69153;BME280;56261;51.580;4.578;2023-04-25T04:16:31;101367.13;;;5.59;100.00
69153;BME280;56261;51.580;4.578;2023-04-25T04:18:56;101369.03;;;5.57;100.00
69153;BME280;56261;51.580;4.578;2023-04-25T04:21:22;101368.66;;;5.61;100.00
69153;BME280;56261;51.580;4.578;2023-04-25T04:23:47;101373.34;;;5.58;100.00
69153;BME280;56261;51.580;4.578;2023-04-25T04:26:13;101374.06;;;5.60;100.00
69153;BME280;56261;51.580;4.578;2023-04-25T04:28:40;101370.00;;;5.67;100.00
69153;BME280;56261;51.580;4.578;2023-04-25T04:31:05;101378.25;;;5.74;100.00
69153;BME280;56261;51.580;4.578;2023-04-25T04:33:32;101384.25;;;5.76;100.00
69153;BME280;56261;51.580;4.578;2023-04-25T04:35:58;101375.09;;;5.80;100.00
69153;BME280;56261;51.580;4.578;2023-04-25T04:38:24;101390.38;;;5.88;100.00
69153;BME280;56261;51.580;4.578;2023-04-25T04:40:50;101392.28;;;5.86;100.00
69153;BME280;56261;51.580;4.578;2023-04-25T04:43:15;101402.63;;;5.89;100.00
69153;BME280;56261;51.580;4.578;2023-04-25T04:45:42;101386.84;;;5.87;100.00
69153;BME280;56261;51.580;4.578;2023-04-25T04:48:08;101394.22;;;5.95;100.00
69153;BME280;56261;51.580;4.578;2023-04-25T04:50:33;101395.28;;;5.92;100.00
69153;BME280;56261;51.580;4.578;2023-04-25T04:52:59;101397.47;;;5.98;100.00
69153;BME280;56261;51.580;4.578;2023-04-25T04:55:25;101403.00;;;5.95;100.00
69153;BME280;56261;51.580;4.578;2023-04-25T04:57:50;101404.16;;;6.02;100.00
69153;BME280;56261;51.580;4.578;2023-04-25T05:00:16;101403.44;;;6.12;100.00
69153;BME280;56261;51.580;4.578;2023-04-25T05:02:41;101399.34;;;6.08;100.00
69153;BME280;56261;51.580;4.578;2023-04-25T05:05:07;101400.44;;;6.05;100.00
69153;BME280;56261;51.580;4.578;2023-04-25T05:07:33;101401.75;;;6.11;100.00
69153;BME280;56261;51.580;4.578;2023-04-25T05:09:59;101417.47;;;6.23;100.00
69153;BME280;56261;51.580;4.578;2023-04-25T05:12:24;101424.34;;;6.15;100.00
69153;BME280;56261;51.580;4.578;2023-04-25T05:14:49;101437.91;;;5.78;100.00
69153;BME280;56261;51.580;4.578;2023-04-25T05:17:15;101440.78;;;5.86;100.00
69153;BME280;56261;51.580;4.578;2023-04-25T05:19:40;101443.91;;;5.80;100.00
69153;BME280;56261;51.580;4.578;2023-04-25T05:22:05;101459.31;;;5.86;100.00
69153;BME280;56261;51.580;4.578;2023-04-25T05:24:31;101447.31;;;5.59;100.00
69153;BME280;56261;51.580;4.578;2023-04-25T05:26:57;101468.72;;;5.68;100.00
69153;BME280;56261;51.580;4.578;2023-04-25T05:29:22;101467.03;;;5.55;100.00
69153;BME280;56261;51.580;4.578;2023-04-25T05:31:48;101461.53;;;5.58;100.00
69153;BME280;56261;51.580;4.578;2023-04-25T05:34:13;101468.38;;;5.61;100.00
69153;BME280;56261;51.580;4.578;2023-04-25T05:36:38;101463.66;;;5.76;100.00
69153;BME280;56261;51.580;4.578;2023-04-25T05:39:04;101456.19;;;5.81;100.00
69153;BME280;56261;51.580;4.578;2023-04-25T05:41:29;101454.28;;;5.94;100.00
69153;BME280;56261;51.580;4.578;2023-04-25T05:43:55;101453.75;;;6.00;100.00
69153;BME280;56261;51.580;4.578;2023-04-25T05:46:20;101455.25;;;5.71;100.00
69153;BME280;56261;51.580;4.578;2023-04-25T05:48:46;101452.09;;;5.99;100.00
69153;BME280;56261;51.580;4.578;2023-04-25T05:51:11;101456.91;;;6.06;100.00
69153;BME280;56261;51.580;4.578;2023-04-25T05:53:36;101462.50;;;6.23;100.00
69153;BME280;56261;51.580;4.578;2023-04-25T05:56:02;101466.31;;;6.31;100.00
69153;BME280;56261;51.580;4.578;2023-04-25T05:58:27;101476.03;;;6.41;100.00
69153;BME280;56261;51.580;4.578;2023-04-25T06:00:54;101477.19;;;6.70;100.00
69153;BME280;56261;51.580;4.578;2023-04-25T06:03:19;101474.28;;;7.45;100.00
69153;BME280;56261;51.580;4.578;2023-04-25T06:05:45;101474.66;;;7.41;100.00
69153;BME280;56261;51.580;4.578;2023-04-25T06:08:10;101474.41;;;7.84;100.00
69153;BME280;56261;51.580;4.578;2023-04-25T06:10:36;101475.19;;;8.35;100.00
69153;BME280;56261;51.580;4.578;2023-04-25T06:13:02;101482.47;;;8.62;100.00
69153;BME280;56261;51.580;4.578;2023-04-25T06:15:28;101480.72;;;8.03;100.00
69153;BME280;56261;51.580;4.578;2023-04-25T06:17:53;101478.31;;;7.80;100.00
69153;BME280;56261;51.580;4.578;2023-04-25T06:20:19;101496.69;;;7.62;100.00
69153;BME280;56261;51.580;4.578;2023-04-25T06:22:48;101489.63;;;8.42;100.00
69153;BME280;56261;51.580;4.578;2023-04-25T06:25:13;101482.59;;;8.70;100.00
69153;BME280;56261;51.580;4.578;2023-04-25T06:27:39;101467.75;;;8.39;100.00
69153;BME280;56261;51.580;4.578;2023-04-25T06:30:05;101488.72;;;8.32;100.00
69153;BME280;56261;51.580;4.578;2023-04-25T06:32:30;101492.00;;;8.45;100.00
69153;BME280;56261;51.580;4.578;2023-04-25T06:34:56;101499.97;;;8.45;100.00
69153;BME280;56261;51.580;4.578;2023-04-25T06:37:21;101496.13;;;9.06;100.00
69153;BME280;56261;51.580;4.578;2023-04-25T06:39:46;101492.13;;;8.73;100.00
69153;BME280;56261;51.580;4.578;2023-04-25T06:42:12;101503.47;;;8.85;100.00
69153;BME280;56261;51.580;4.578;2023-04-25T06:44:37;101505.72;;;8.80;100.00
69153;BME280;56261;51.580;4.578;2023-04-25T06:47:03;101513.13;;;8.47;100.00
69153;BME280;56261;51.580;4.578;2023-04-25T06:49:28;101522.22;;;8.83;100.00
69153;BME280;56261;51.580;4.578;2023-04-25T06:51:53;101525.81;;;9.02;100.00
69153;BME280;56261;51.580;4.578;2023-04-25T06:54:19;101518.72;;;10.05;100.00
69153;BME280;56261;51.580;4.578;2023-04-25T06:56:44;101524.13;;;10.13;100.00
69153;BME280;56261;51.580;4.578;2023-04-25T06:59:10;101523.28;;;9.57;100.00
69153;BME280;56261;51.580;4.578;2023-04-25T07:01:35;101533.94;;;9.10;100.00
69153;BME280;56261;51.580;4.578;2023-04-25T07:04:00;101529.50;;;8.42;100.00
69153;BME280;56261;51.580;4.578;2023-04-25T07:06:26;101544.13;;;8.17;100.00
69153;BME280;56261;51.580;4.578;2023-04-25T07:08:53;101537.16;;;8.36;100.00
69153;BME280;56261;51.580;4.578;2023-04-25T07:11:18;101538.81;;;8.27;100.00
69153;BME280;56261;51.580;4.578;2023-04-25T07:13:44;101549.97;;;8.11;100.00
69153;BME280;56261;51.580;4.578;2023-04-25T07:16:09;101548.31;;;8.39;100.00
69153;BME280;56261;51.580;4.578;2023-04-25T07:18:35;101550.84;;;8.31;100.00
69153;BME280;56261;51.580;4.578;2023-04-25T07:21:00;101560.91;;;7.77;100.00
69153;BME280;56261;51.580;4.578;2023-04-25T07:23:25;101565.63;;;7.74;100.00
69153;BME280;56261;51.580;4.578;2023-04-25T07:25:51;101577.66;;;7.47;100.00
69153;BME280;56261;51.580;4.578;2023-04-25T07:28:16;101574.56;;;7.42;100.00
69153;BME280;56261;51.580;4.578;2023-04-25T07:30:42;101585.16;;;7.21;100.00
69153;BME280;56261;51.580;4.578;2023-04-25T07:33:07;101583.09;;;7.24;100.00
69153;BME280;56261;51.580;4.578;2023-04-25T07:35:33;101588.16;;;7.27;100.00
69153;BME280;56261;51.580;4.578;2023-04-25T07:37:58;101592.72;;;7.25;100.00
69153;BME280;56261;51.580;4.578;2023-04-25T07:40:24;101582.06;;;8.39;100.00
69153;BME280;56261;51.580;4.578;2023-04-25T07:42:49;101577.44;;;8.31;100.00
69153;BME280;56261;51.580;4.578;2023-04-25T07:45:15;101580.84;;;8.02;100.00
69153;BME280;56261;51.580;4.578;2023-04-25T07:47:40;101574.09;;;9.26;100.00
69153;BME280;56261;51.580;4.578;2023-04-25T07:50:06;101572.63;;;9.61;100.00
69153;BME280;56261;51.580;4.578;2023-04-25T07:52:32;101573.63;;;9.50;100.00
69153;BME280;56261;51.580;4.578;2023-04-25T07:54:57;101577.53;;;10.21;100.00
69153;BME280;56261;51.580;4.578;2023-04-25T07:57:23;101582.38;;;10.08;100.00
69153;BME280;56261;51.580;4.578;2023-04-25T07:59:49;101582.25;;;10.09;100.00
69153;BME280;56261;51.580;4.578;2023-04-25T08:02:14;101594.66;;;11.18;100.00
69153;BME280;56261;51.580;4.578;2023-04-25T08:04:40;101590.75;;;10.86;100.00
69153;BME280;56261;51.580;4.578;2023-04-25T08:07:05;101590.13;;;11.10;100.00
69153;BME280;56261;51.580;4.578;2023-04-25T08:09:31;101602.88;;;11.95;100.00
69153;BME280;56261;51.580;4.578;2023-04-25T08:11:59;101607.97;;;11.10;100.00
69153;BME280;56261;51.580;4.578;2023-04-25T08:14:26;101614.25;;;11.97;100.00
69153;BME280;56261;51.580;4.578;2023-04-25T08:16:51;101618.94;;;10.71;100.00
69153;BME280;56261;51.580;4.578;2023-04-25T08:19:16;101630.06;;;9.73;100.00
69153;BME280;56261;51.580;4.578;2023-04-25T08:21:42;101640.66;;;9.36;100.00
69153;BME280;56261;51.580;4.578;2023-04-25T08:24:07;101647.81;;;9.16;100.00
69153;BME280;56261;51.580;4.578;2023-04-25T08:26:33;101646.81;;;9.07;100.00
69153;BME280;56261;51.580;4.578;2023-04-25T08:28:59;101646.41;;;9.02;100.00
69153;BME280;56261;51.580;4.578;2023-04-25T08:31:25;101662.16;;;8.55;100.00
69153;BME280;56261;51.580;4.578;2023-04-25T08:33:50;101662.78;;;8.38;100.00
69153;BME280;56261;51.580;4.578;2023-04-25T08:36:17;101663.75;;;8.37;100.00
69153;BME280;56261;51.580;4.578;2023-04-25T08:38:42;101659.88;;;8.41;100.00
69153;BME280;56261;51.580;4.578;2023-04-25T08:41:08;101662.91;;;8.36;100.00
69153;BME280;56261;51.580;4.578;2023-04-25T08:43:37;101667.63;;;9.80;100.00
69153;BME280;56261;51.580;4.578;2023-04-25T08:46:02;101664.31;;;10.06;100.00
69153;BME280;56261;51.580;4.578;2023-04-25T08:48:28;101666.06;;;9.87;100.00
69153;BME280;56261;51.580;4.578;2023-04-25T08:50:57;101662.88;;;9.64;100.00
69153;BME280;56261;51.580;4.578;2023-04-25T08:53:31;101674.25;;;10.96;100.00
69153;BME280;56261;51.580;4.578;2023-04-25T08:55:59;101682.88;;;10.63;100.00
69153;BME280;56261;51.580;4.578;2023-04-25T08:58:27;101675.94;;;12.03;100.00
69153;BME280;56261;51.580;4.578;2023-04-25T09:00:53;101681.72;;;12.59;100.00
69153;BME280;56261;51.580;4.578;2023-04-25T09:03:18;101678.91;;;11.92;100.00
69153;BME280;56261;51.580;4.578;2023-04-25T09:05:44;101693.16;;;10.57;100.00
69153;BME280;56261;51.580;4.578;2023-04-25T09:08:09;101702.84;;;9.54;100.00
69153;BME280;56261;51.580;4.578;2023-04-25T09:10:36;101701.59;;;9.29;100.00
69153;BME280;56261;51.580;4.578;2023-04-25T09:13:09;101705.91;;;8.91;100.00
69153;BME280;56261;51.580;4.578;2023-04-25T09:15:53;101715.16;;;8.47;100.00
69153;BME280;56261;51.580;4.578;2023-04-25T09:18:28;101709.06;;;8.66;100.00
69153;BME280;56261;51.580;4.578;2023-04-25T09:21:08;101713.59;;;8.94;100.00
69153;BME280;56261;51.580;4.578;2023-04-25T09:23:47;101715.84;;;8.99;100.00
69153;BME280;56261;51.580;4.578;2023-04-25T09:26:18;101714.06;;;9.39;100.00
69153;BME280;56261;51.580;4.578;2023-04-25T09:28:44;101712.66;;;9.34;100.00
69153;BME280;56261;51.580;4.578;2023-04-25T09:31:10;101718.41;;;9.49;100.00
69153;BME280;56261;51.580;4.578;2023-04-25T09:33:37;101724.41;;;9.71;100.00
69153;BME280;56261;51.580;4.578;2023-04-25T09:36:10;101730.44;;;9.83;100.00
69153;BME280;56261;51.580;4.578;2023-04-25T09:38:45;101734.53;;;9.67;100.00
69153;BME280;56261;51.580;4.578;2023-04-25T09:41:11;101731.88;;;9.67;100.00
69153;BME280;56261;51.580;4.578;2023-04-25T09:43:37;101736.34;;;9.28;100.00
69153;BME280;56261;51.580;4.578;2023-04-25T09:46:08;101754.81;;;8.60;100.00
69153;BME280;56261;51.580;4.578;2023-04-25T09:48:34;101754.28;;;8.35;100.00
69153;BME280;56261;51.580;4.578;2023-04-25T09:51:10;101760.56;;;8.55;100.00
69153;BME280;56261;51.580;4.578;2023-04-25T09:53:42;101763.50;;;9.02;100.00
69153;BME280;56261;51.580;4.578;2023-04-25T09:56:09;101767.81;;;8.93;100.00
69153;BME280;56261;51.580;4.578;2023-04-25T09:58:37;101774.53;;;8.57;100.00
69153;BME280;56261;51.580;4.578;2023-04-25T10:01:05;101782.53;;;8.36;100.00
69153;BME280;56261;51.580;4.578;2023-04-25T10:03:32;101776.22;;;8.58;100.00
69153;BME280;56261;51.580;4.578;2023-04-25T10:06:04;101782.28;;;8.70;100.00
69153;BME280;56261;51.580;4.578;2023-04-25T10:08:33;101781.06;;;8.84;100.00
69153;BME280;56261;51.580;4.578;2023-04-25T10:11:01;101775.44;;;8.77;100.00
69153;BME280;56261;51.580;4.578;2023-04-25T10:13:32;101780.63;;;8.79;100.00
69153;BME280;56261;51.580;4.578;2023-04-25T10:15:58;101788.44;;;8.70;100.00
69153;BME280;56261;51.580;4.578;2023-04-25T10:18:25;101788.25;;;8.93;100.00
69153;BME280;56261;51.580;4.578;2023-04-25T10:20:56;101787.97;;;8.86;100.00
69153;BME280;56261;51.580;4.578;2023-04-25T10:23:22;101778.94;;;9.18;100.00
69153;BME280;56261;51.580;4.578;2023-04-25T10:25:49;101776.44;;;9.55;100.00
69153;BME280;56261;51.580;4.578;2023-04-25T10:28:16;101777.75;;;10.47;100.00
69153;BME280;56261;51.580;4.578;2023-04-25T10:31:01;101772.66;;;10.82;100.00
69153;BME280;56261;51.580;4.578;2023-04-25T10:33:38;101766.63;;;11.25;100.00
69153;BME280;56261;51.580;4.578;2023-04-25T10:38:36;101789.91;;;9.73;100.00
69153;BME280;56261;51.580;4.578;2023-04-25T10:41:07;101787.50;;;9.51;100.00
69153;BME280;56261;51.580;4.578;2023-04-25T10:44:02;101792.69;;;9.52;100.00
69153;BME280;56261;51.580;4.578;2023-04-25T10:46:29;101784.84;;;9.90;100.00
69153;BME280;56261;51.580;4.578;2023-04-25T10:49:00;101780.56;;;10.26;100.00
69153;BME280;56261;51.580;4.578;2023-04-25T10:51:34;101797.88;;;10.03;100.00
69153;BME280;56261;51.580;4.578;2023-04-25T10:54:05;101790.72;;;10.03;100.00
69153;BME280;56261;51.580;4.578;2023-04-25T10:56:39;101787.31;;;10.21;100.00
69153;BME280;56261;51.580;4.578;2023-04-25T10:59:17;101787.88;;;10.14;100.00
69153;BME280;56261;51.580;4.578;2023-04-25T11:01:47;101794.38;;;9.83;100.00
69153;BME280;56261;51.580;4.578;2023-04-25T11:07:13;101796.03;;;10.03;100.00
69153;BME280;56261;51.580;4.578;2023-04-25T11:09:44;101791.13;;;9.89;100.00
69153;BME280;56261;51.580;4.578;2023-04-25T11:12:10;101805.91;;;9.73;100.00
69153;BME280;56261;51.580;4.578;2023-04-25T11:14:39;101782.44;;;10.16;100.00
69153;BME280;56261;51.580;4.578;2023-04-25T11:17:05;101797.16;;;10.30;100.00
69153;BME280;56261;51.580;4.578;2023-04-25T11:19:31;101787.09;;;10.61;100.00
69153;BME280;56261;51.580;4.578;2023-04-25T11:21:58;101786.34;;;11.60;100.00
69153;BME280;56261;51.580;4.578;2023-04-25T11:24:31;101781.53;;;11.28;100.00
69153;BME280;56261;51.580;4.578;2023-04-25T11:27:01;101796.09;;;11.33;100.00
69153;BME280;56261;51.580;4.578;2023-04-25T11:29:33;101791.84;;;10.95;100.00
69153;BME280;56261;51.580;4.578;2023-04-25T11:31:59;101804.53;;;10.46;100.00
69153;BME280;56261;51.580;4.578;2023-04-25T11:34:27;101797.25;;;10.28;100.00
69153;BME280;56261;51.580;4.578;2023-04-25T11:36:52;101808.94;;;10.08;100.00
69153;BME280;56261;51.580;4.578;2023-04-25T11:39:19;101817.66;;;10.29;100.00
69153;BME280;56261;51.580;4.578;2023-04-25T11:41:46;101802.31;;;10.78;100.00
69153;BME280;56261;51.580;4.578;2023-04-25T11:44:11;101805.94;;;10.40;100.00
69153;BME280;56261;51.580;4.578;2023-04-25T11:46:40;101804.84;;;10.43;100.00
69153;BME280;56261;51.580;4.578;2023-04-25T11:49:05;101807.69;;;10.69;100.00
69153;BME280;56261;51.580;4.578;2023-04-25T11:51:41;101807.22;;;10.46;100.00
69153;BME280;56261;51.580;4.578;2023-04-25T11:54:07;101801.13;;;10.91;100.00
69153;BME280;56261;51.580;4.578;2023-04-25T11:56:33;101791.81;;;11.76;100.00
69153;BME280;56261;51.580;4.578;2023-04-25T11:59:01;101788.31;;;11.94;100.00
69153;BME280;56261;51.580;4.578;2023-04-25T12:01:34;101798.56;;;11.62;100.00
69153;BME280;56261;51.580;4.578;2023-04-25T12:04:25;101798.72;;;11.79;100.00
69153;BME280;56261;51.580;4.578;2023-04-25T12:06:52;101806.56;;;10.05;100.00
69153;BME280;56261;51.580;4.578;2023-04-25T12:09:20;101802.59;;;10.75;100.00
69153;BME280;56261;51.580;4.578;2023-04-25T12:11:53;101802.94;;;11.18;100.00
69153;BME280;56261;51.580;4.578;2023-04-25T12:16:52;101812.75;;;11.63;100.00
69153;BME280;56261;51.580;4.578;2023-04-25T12:19:20;101804.56;;;11.82;100.00
69153;BME280;56261;51.580;4.578;2023-04-25T12:21:46;101804.84;;;11.89;100.00
69153;BME280;56261;51.580;4.578;2023-04-25T12:24:17;101802.06;;;11.63;100.00
69153;BME280;56261;51.580;4.578;2023-04-25T12:27:00;101813.34;;;10.93;100.00
69153;BME280;56261;51.580;4.578;2023-04-25T12:29:28;101817.03;;;10.83;100.00
69153;BME280;56261;51.580;4.578;2023-04-25T12:31:55;101825.91;;;11.11;100.00
69153;BME280;56261;51.580;4.578;2023-04-25T12:34:22;101817.94;;;12.00;100.00
69153;BME280;56261;51.580;4.578;2023-04-25T12:36:48;101812.25;;;12.48;100.00
69153;BME280;56261;51.580;4.578;2023-04-25T12:39:17;101824.59;;;12.40;100.00
69153;BME280;56261;51.580;4.578;2023-04-25T12:41:43;101827.81;;;12.78;100.00
69153;BME280;56261;51.580;4.578;2023-04-25T12:44:09;101829.94;;;12.66;100.00
69153;BME280;56261;51.580;4.578;2023-04-25T12:46:36;101827.34;;;11.87;100.00
69153;BME280;56261;51.580;4.578;2023-04-25T12:49:01;101831.63;;;12.15;100.00
69153;BME280;56261;51.580;4.578;2023-04-25T12:51:28;101832.94;;;11.93;100.00
69153;BME280;56261;51.580;4.578;2023-04-25T12:53:54;101830.47;;;11.64;100.00